createdAt,value
2023-05-17T00:00:33.929Z,100602.19
2023-05-17T00:03:54.334Z,100602.09
2023-05-17T00:06:57.076Z,100599.44
2023-05-17T00:10:00.109Z,100599.44
2023-05-17T00:13:04.398Z,100601.22
2023-05-17T00:16:07.660Z,100599.44
2023-05-17T00:19:10.468Z,100599.53
2023-05-17T00:22:13.121Z,100588.81
2023-05-17T00:25:15.949Z,100587.19
2023-05-17T00:28:18.370Z,100596.03
2023-05-17T00:31:21.253Z,100593.34
2023-05-17T00:34:23.690Z,100598.69
2023-05-17T00:37:26.326Z,100594.28
2023-05-17T00:40:28.831Z,100598.91
2023-05-17T00:43:32.139Z,100599.69
2023-05-17T00:46:34.589Z,100590.78
2023-05-17T00:49:37.350Z,100603.28
2023-05-17T00:52:39.852Z,100595.25
2023-05-17T00:55:44.909Z,100594.34
2023-05-17T00:58:47.301Z,100596.28
2023-05-17T01:01:51.718Z,100598.97
2023-05-17T01:04:54.194Z,100596.34
2023-05-17T01:07:57.167Z,100599.94
2023-05-17T01:11:08.862Z,100596.50
2023-05-17T01:14:27.051Z,100596.53
2023-05-17T01:17:41.243Z,100589.38
2023-05-17T01:20:45.937Z,100593.91
2023-05-17T01:24:50.205Z,100593.19
2023-05-17T01:27:55.195Z,100580.84
2023-05-17T01:30:59.438Z,100583.50
2023-05-17T01:34:02.411Z,100587.09
2023-05-17T01:37:05.272Z,100583.63
2023-05-17T01:40:09.219Z,100582.75
2023-05-17T01:43:33.055Z,100594.34
2023-05-17T01:46:39.210Z,100581.91
2023-05-17T01:49:42.253Z,100589.00
2023-05-17T01:52:51.520Z,100598.69
2023-05-17T01:55:57.921Z,100605.09
2023-05-17T01:59:03.478Z,100604.97
2023-05-17T02:02:09.820Z,100597.91
2023-05-17T02:05:13.138Z,100596.09
2023-05-17T02:08:15.740Z,100592.50
2023-05-17T02:11:18.615Z,100587.16
2023-05-17T02:14:21.182Z,100598.72
2023-05-17T02:17:24.633Z,100596.00
2023-05-17T02:20:27.311Z,100604.00
2023-05-17T02:23:30.124Z,100601.34
2023-05-17T02:26:33.046Z,100603.19
2023-05-17T02:29:36.295Z,100613.09
2023-05-17T02:32:39.212Z,100615.91
2023-05-17T02:35:42.611Z,100615.91
2023-05-17T02:38:45.042Z,100613.06
2023-05-17T02:41:48.547Z,100611.31
2023-05-17T02:44:53.249Z,100604.16
2023-05-17T02:47:56.099Z,100610.34
2023-05-17T02:50:58.768Z,100614.81
2023-05-17T02:54:01.640Z,100604.97
2023-05-17T02:57:04.786Z,100610.34
2023-05-17T03:00:09.770Z,100612.91
2023-05-17T03:03:12.583Z,100620.91
2023-05-17T03:06:15.641Z,100629.84
2023-05-17T03:09:19.139Z,100630.78
2023-05-17T03:12:26.060Z,100638.69
2023-05-17T03:15:30.268Z,100636.03
2023-05-17T03:18:33.675Z,100639.63
2023-05-17T03:21:36.430Z,100642.38
2023-05-17T03:24:40.041Z,100641.50
2023-05-17T03:27:42.648Z,100645.03
2023-05-17T03:30:47.359Z,100645.97
2023-05-17T03:33:51.067Z,100650.44
2023-05-17T03:36:56.469Z,100652.25
2023-05-17T03:39:59.329Z,100652.34
2023-05-17T03:43:02.685Z,100652.41
2023-05-17T03:46:06.101Z,100660.31
2023-05-17T03:49:09.518Z,100669.31
2023-05-17T03:52:13.482Z,100663.09
2023-05-17T03:55:18.640Z,100659.56
2023-05-17T03:58:21.128Z,100654.34
2023-05-17T04:01:24.898Z,100652.69
2023-05-17T04:04:27.787Z,100666.00
2023-05-17T04:07:30.830Z,100664.31
2023-05-17T04:10:33.562Z,100676.78
2023-05-17T04:13:40.081Z,100685.88
2023-05-17T04:16:43.008Z,100695.72
2023-05-17T04:19:46.924Z,100696.59
2023-05-17T04:22:50.121Z,100683.38
2023-05-17T04:25:53.423Z,100682.50
2023-05-17T04:28:57.512Z,100682.50
2023-05-17T04:32:00.892Z,100675.47
2023-05-17T04:35:03.788Z,100675.44
2023-05-17T04:38:06.721Z,100678.16
2023-05-17T04:41:09.770Z,100681.66
2023-05-17T04:44:14.540Z,100678.91
2023-05-17T04:47:19.257Z,100683.44
2023-05-17T04:50:22.428Z,100682.56
2023-05-17T04:53:26.287Z,100691.41
2023-05-17T04:56:30.024Z,100690.56
2023-05-17T04:59:33.322Z,100694.19
2023-05-17T05:02:38.008Z,100695.97
2023-05-17T05:05:41.607Z,100700.34
2023-05-17T05:08:45.661Z,100695.03
2023-05-17T05:11:49.162Z,100698.69
2023-05-17T05:14:52.444Z,100700.31
2023-05-17T05:17:55.136Z,100712.72
2023-05-17T05:20:58.440Z,100712.69
2023-05-17T05:24:01.793Z,100721.53
2023-05-17T05:27:06.952Z,100717.91
2023-05-17T05:30:11.661Z,100725.00
2023-05-17T05:33:14.770Z,100717.00
2023-05-17T05:36:19.093Z,100716.19
2023-05-17T05:39:23.189Z,100714.47
2023-05-17T05:42:26.077Z,100715.41
2023-05-17T05:45:28.984Z,100711.81
2023-05-17T05:48:39.684Z,100695.78
2023-05-17T05:51:43.294Z,100679.75
2023-05-17T05:54:46.309Z,100675.25
2023-05-17T05:57:49.118Z,100683.34
2023-05-17T06:00:52.068Z,100680.66
2023-05-17T06:03:54.982Z,100677.03
2023-05-17T06:06:57.619Z,100678.06
2023-05-17T06:10:00.396Z,100693.22
2023-05-17T06:13:03.042Z,100711.81
2023-05-17T06:16:06.465Z,100723.38
2023-05-17T06:19:09.523Z,100732.19
2023-05-17T06:22:12.445Z,100729.50
2023-05-17T06:25:15.187Z,100730.44
2023-05-17T06:28:21.120Z,100734.84
2023-05-17T06:31:23.634Z,100726.00
2023-05-17T06:34:26.903Z,100725.03
2023-05-17T06:37:29.390Z,100723.34
2023-05-17T06:40:32.527Z,100742.03
2023-05-17T06:43:35.730Z,100745.59
2023-05-17T06:46:40.392Z,100751.13
2023-05-17T06:49:42.979Z,100763.47
2023-05-17T06:52:46.941Z,100763.38
2023-05-17T06:55:51.091Z,100761.47
2023-05-17T06:58:54.020Z,100763.22
2023-05-17T07:02:00.391Z,100766.78
2023-05-17T07:05:06.454Z,100769.44
2023-05-17T07:08:09.166Z,100769.34
2023-05-17T07:11:11.912Z,100772.00
2023-05-17T07:14:14.723Z,100774.53
2023-05-17T07:17:17.778Z,100770.09
2023-05-17T07:20:21.160Z,100768.63
2023-05-17T07:23:27.247Z,100774.88
2023-05-17T07:26:29.809Z,100779.38
2023-05-17T07:29:32.777Z,100774.94
2023-05-17T07:32:35.443Z,100766.91
2023-05-17T07:35:38.321Z,100766.06
2023-05-17T07:38:40.877Z,100769.69
2023-05-17T07:41:43.677Z,100764.44
2023-05-17T07:44:48.805Z,100770.78
2023-05-17T07:47:51.714Z,100777.97
2023-05-17T07:50:54.995Z,100796.72
2023-05-17T07:53:59.284Z,100811.75
2023-05-17T07:57:01.913Z,100810.69
2023-05-17T08:00:05.327Z,100804.59
2023-05-17T08:03:16.505Z,100798.28
2023-05-17T08:06:20.283Z,100799.09
2023-05-17T08:09:22.951Z,100799.03
2023-05-17T08:12:28.089Z,100802.75
2023-05-17T08:15:31.153Z,100807.25
2023-05-17T08:18:34.907Z,100825.09
2023-05-17T08:21:37.615Z,100813.56
2023-05-17T08:24:40.434Z,100807.25
2023-05-17T08:27:43.187Z,100798.38
2023-05-17T08:30:46.065Z,100804.66
2023-05-17T08:33:48.623Z,100811.75
2023-05-17T08:36:52.052Z,100812.56
2023-05-17T08:39:54.692Z,100811.75
2023-05-17T08:42:58.186Z,100814.38
2023-05-17T08:46:01.685Z,100818.88
2023-05-17T08:49:06.670Z,100832.41
2023-05-17T08:52:10.669Z,100843.22
2023-05-17T08:55:16.871Z,100850.41
2023-05-17T08:58:26.608Z,100844.22
2023-05-17T09:01:32.998Z,100853.03
2023-05-17T09:04:36.514Z,100852.28
2023-05-17T09:07:39.369Z,100847.00
2023-05-17T09:10:42.678Z,100851.38
2023-05-17T09:13:45.501Z,100847.84
2023-05-17T09:16:48.761Z,100850.44
2023-05-17T09:19:52.270Z,100847.00
2023-05-17T09:22:55.931Z,100847.91
2023-05-17T09:26:05.424Z,100841.75
2023-05-17T09:29:13.529Z,100842.56
2023-05-17T09:32:18.503Z,100847.78
2023-05-17T09:35:31.168Z,100847.88
2023-05-17T09:38:34.242Z,100857.66
2023-05-17T09:41:45.838Z,100862.88
2023-05-17T09:44:58.035Z,100866.41
2023-05-17T09:48:17.844Z,100858.41
2023-05-17T09:51:32.480Z,100869.91
2023-05-17T09:54:41.544Z,100876.00
2023-05-17T09:57:44.684Z,100877.72
2023-05-17T10:00:50.731Z,100872.38
2023-05-17T10:03:53.959Z,100878.66
2023-05-17T10:06:56.910Z,100881.38
2023-05-17T10:10:00.193Z,100879.66
2023-05-17T10:13:06.014Z,100876.91
2023-05-17T10:16:09.931Z,100866.13
2023-05-17T10:19:12.895Z,100873.25
2023-05-17T10:22:23.112Z,100867.91
2023-05-17T10:25:26.899Z,100865.34
2023-05-17T10:28:30.394Z,100854.63
2023-05-17T10:31:34.544Z,100864.34
2023-05-17T10:34:39.560Z,100874.97
2023-05-17T10:37:43.606Z,100872.31
2023-05-17T10:40:47.315Z,100880.28
2023-05-17T10:43:50.354Z,100880.16
2023-05-17T10:46:58.141Z,100883.69
2023-05-17T10:50:00.818Z,100879.19
2023-05-17T10:53:09.524Z,100889.84
2023-05-17T10:56:12.171Z,100889.97
2023-05-17T10:59:25.715Z,100888.19
2023-05-17T11:02:29.343Z,100892.66
2023-05-17T11:05:32.767Z,100893.59
2023-05-17T11:08:35.557Z,100885.41
2023-05-17T11:11:41.259Z,100878.16
2023-05-17T11:14:46.654Z,100887.88
2023-05-17T11:17:54.665Z,100877.97
2023-05-17T11:21:09.871Z,100884.84
2023-05-17T11:24:24.322Z,100886.44
2023-05-17T11:27:29.909Z,100888.94
2023-05-17T11:30:33.071Z,100878.19
2023-05-17T11:33:54.510Z,100884.50
2023-05-17T11:36:57.341Z,100861.50
2023-05-17T11:40:08.450Z,100877.41
2023-05-17T11:43:23.211Z,100888.97
2023-05-17T11:46:25.910Z,100894.13
2023-05-17T11:49:35.910Z,100895.88
2023-05-17T11:52:41.744Z,100893.19
2023-05-17T11:55:50.889Z,100888.72
2023-05-17T11:58:54.351Z,100903.81
2023-05-17T12:01:57.602Z,100891.25
2023-05-17T12:05:00.406Z,100901.00
2023-05-17T12:08:04.111Z,100906.19
2023-05-17T12:11:08.131Z,100896.28
2023-05-17T12:14:15.712Z,100889.75
2023-05-17T12:17:31.651Z,100891.59
2023-05-17T12:20:35.652Z,100891.75
2023-05-17T12:23:41.355Z,100895.56
2023-05-17T12:26:45.444Z,100899.94
2023-05-17T12:29:47.950Z,100903.53
2023-05-17T12:32:51.320Z,100907.94
2023-05-17T12:35:53.878Z,100909.66
2023-05-17T12:38:57.143Z,100922.94
2023-05-17T12:41:59.762Z,100919.16
2023-05-17T12:45:03.400Z,100923.84
2023-05-17T12:48:06.362Z,100919.47
2023-05-17T12:51:13.359Z,100919.53
2023-05-17T12:54:36.016Z,100927.53
2023-05-17T12:57:38.725Z,100922.00
2023-05-17T13:00:41.586Z,100915.69
2023-05-17T13:03:52.054Z,100926.19
2023-05-17T13:06:57.640Z,100926.94
2023-05-17T13:10:00.406Z,100931.53
2023-05-17T13:13:03.346Z,100930.88
2023-05-17T13:16:06.620Z,100931.06
2023-05-17T13:19:16.796Z,100923.97
2023-05-17T13:22:19.742Z,100920.22
2023-05-17T13:25:22.298Z,100920.38
2023-05-17T13:28:25.718Z,100923.19
2023-05-17T13:31:28.159Z,100924.03
2023-05-17T13:34:31.022Z,100928.59
2023-05-17T13:37:33.518Z,100923.31
2023-05-17T13:40:37.977Z,100932.09
2023-05-17T13:43:41.330Z,100942.72
2023-05-17T13:46:44.170Z,100943.66
2023-05-17T13:49:46.786Z,100958.25
2023-05-17T13:52:49.714Z,100968.13
2023-05-17T13:55:52.353Z,100962.84
2023-05-17T13:58:55.142Z,100979.81
2023-05-17T14:01:58.153Z,100976.06
2023-05-17T14:05:01.014Z,100976.13
2023-05-17T14:08:03.954Z,100982.44
2023-05-17T14:11:06.812Z,100982.31
2023-05-17T14:14:09.322Z,100987.69
2023-05-17T14:17:12.652Z,100979.78
2023-05-17T14:20:15.406Z,100977.00
2023-05-17T14:23:18.373Z,100984.03
2023-05-17T14:26:21.955Z,100987.47
2023-05-17T14:29:24.821Z,100993.72
2023-05-17T14:32:27.836Z,100979.41
2023-05-17T14:35:31.005Z,100992.03
2023-05-17T14:38:33.467Z,101003.53
2023-05-17T14:41:36.596Z,100999.91
2023-05-17T14:44:39.935Z,101009.63
2023-05-17T14:47:42.887Z,101019.41
2023-05-17T14:50:45.421Z,101028.38
2023-05-17T14:53:48.280Z,101036.50
2023-05-17T14:56:50.820Z,101035.63
2023-05-17T14:59:53.748Z,101040.97
2023-05-17T15:02:56.244Z,101035.50
2023-05-17T15:05:59.356Z,101048.13
2023-05-17T15:09:04.144Z,101036.59
2023-05-17T15:12:08.725Z,101045.56
2023-05-17T15:15:11.558Z,101044.66
2023-05-17T15:18:15.156Z,101051.72
2023-05-17T15:21:19.227Z,101056.19
2023-05-17T15:24:22.233Z,101059.72
2023-05-17T15:27:24.824Z,101067.75
2023-05-17T15:30:27.899Z,101066.00
2023-05-17T15:33:32.430Z,101072.28
2023-05-17T15:36:36.716Z,101067.88
2023-05-17T15:39:39.301Z,101073.25
2023-05-17T15:42:42.283Z,101079.53
2023-05-17T15:45:44.708Z,101075.06
2023-05-17T15:48:48.735Z,101084.25
2023-05-17T15:51:51.336Z,101088.00
2023-05-17T15:54:54.445Z,101088.00
2023-05-17T15:57:57.445Z,101077.44
2023-05-17T16:01:04.162Z,101086.38
2023-05-17T16:04:06.788Z,101070.38
2023-05-17T16:07:09.752Z,101081.94
2023-05-17T16:10:12.331Z,101092.72
2023-05-17T16:13:15.093Z,101097.28
2023-05-17T16:16:17.533Z,101092.78
2023-05-17T16:19:20.492Z,101093.69
2023-05-17T16:22:23.117Z,101094.56
2023-05-17T16:25:26.035Z,101099.03
2023-05-17T16:28:28.548Z,101092.72
2023-05-17T16:31:31.409Z,101104.28
2023-05-17T16:34:34.101Z,101093.56
2023-05-17T16:37:37.253Z,101093.63
2023-05-17T16:40:40.050Z,101101.66
2023-05-17T16:43:42.896Z,101105.22
2023-05-17T16:46:45.427Z,101109.72
2023-05-17T16:49:48.458Z,101100.78
2023-05-17T16:52:52.631Z,101107.97
2023-05-17T16:55:58.280Z,101109.78
2023-05-17T16:59:00.831Z,101100.94
2023-05-17T17:02:04.540Z,101114.34
2023-05-17T17:05:07.874Z,101122.34
2023-05-17T17:08:22.290Z,101123.25
2023-05-17T17:11:24.763Z,101119.81
2023-05-17T17:14:27.664Z,101122.50
2023-05-17T17:17:31.143Z,101129.59
2023-05-17T17:20:34.261Z,101127.91
2023-05-17T17:23:36.913Z,101135.94
2023-05-17T17:26:39.749Z,101146.66
2023-05-17T17:29:43.221Z,101138.63
2023-05-17T17:32:46.435Z,101147.53
2023-05-17T17:35:49.115Z,101159.09
2023-05-17T17:38:52.130Z,101150.19
2023-05-17T17:41:54.696Z,101163.56
2023-05-17T17:44:57.591Z,101169.81
2023-05-17T17:48:00.017Z,101174.31
2023-05-17T17:51:04.298Z,101181.41
2023-05-17T17:54:08.597Z,101173.38
2023-05-17T17:57:11.327Z,101179.63
2023-05-17T18:00:16.292Z,101184.06
2023-05-17T18:03:19.166Z,101188.50
2023-05-17T18:06:22.384Z,101195.63
2023-05-17T18:09:25.256Z,101197.41
2023-05-17T18:12:28.630Z,101189.44
2023-05-17T18:15:31.433Z,101201.06
2023-05-17T18:18:34.367Z,101202.84
2023-05-17T18:21:37.593Z,101205.53
2023-05-17T18:24:41.163Z,101205.50
2023-05-17T18:27:44.540Z,101216.16
2023-05-17T18:30:47.162Z,101220.66
2023-05-17T18:33:50.280Z,101225.13
2023-05-17T18:36:52.966Z,101226.03
2023-05-17T18:39:56.201Z,101238.50
2023-05-17T18:42:58.747Z,101238.53
2023-05-17T18:46:02.584Z,101238.53
2023-05-17T18:49:06.937Z,101247.41
2023-05-17T18:52:10.208Z,101253.63
2023-05-17T18:55:13.263Z,101269.66
2023-05-17T18:58:16.218Z,101270.53
2023-05-17T19:01:21.773Z,101274.13
2023-05-17T19:04:26.366Z,101268.75
2023-05-17T19:07:29.846Z,101283.00
2023-05-17T19:10:33.085Z,101293.69
2023-05-17T19:13:36.894Z,101286.56
2023-05-17T19:16:40.226Z,101287.44
2023-05-17T19:19:42.970Z,101287.47
2023-05-17T19:22:46.562Z,101281.22
2023-05-17T19:25:49.400Z,101283.00
2023-05-17T19:28:54.807Z,101296.34
2023-05-17T19:31:57.637Z,101287.44
2023-05-17T19:35:01.597Z,101293.66
2023-05-17T19:38:04.655Z,101297.22
2023-05-17T19:41:09.211Z,101307.00
2023-05-17T19:44:13.190Z,101310.59
2023-05-17T19:47:17.985Z,101308.78
2023-05-17T19:50:21.417Z,101306.13
2023-05-17T19:53:25.021Z,101309.69
2023-05-17T19:56:28.591Z,101315.00
2023-05-17T19:59:32.318Z,101321.22
2023-05-17T20:02:37.608Z,101317.66
2023-05-17T20:05:46.048Z,101317.66
2023-05-17T20:09:21.273Z,101317.63
2023-05-17T20:12:26.457Z,101327.41
2023-05-17T20:15:29.885Z,101324.69
2023-05-17T20:18:33.395Z,101330.03
2023-05-17T20:21:37.077Z,101330.88
2023-05-17T20:24:41.502Z,101329.97
2023-05-17T20:27:45.097Z,101332.63
2023-05-17T20:30:48.382Z,101329.97
2023-05-17T20:33:51.817Z,101343.31
2023-05-17T20:36:56.474Z,101346.84
2023-05-17T20:40:00.343Z,101356.53
2023-05-17T20:43:03.867Z,101364.53
2023-05-17T20:46:10.067Z,101362.78
2023-05-17T20:49:12.953Z,101368.94
2023-05-17T20:52:17.873Z,101371.59
2023-05-17T20:55:22.662Z,101377.78
2023-05-17T20:58:25.053Z,101382.25
2023-05-17T21:01:28.038Z,101388.38
2023-05-17T21:04:30.737Z,101393.66
2023-05-17T21:07:35.183Z,101392.81
2023-05-17T21:10:40.766Z,101393.72
2023-05-17T21:13:43.577Z,101399.94
2023-05-17T21:16:46.073Z,101401.75
2023-05-17T21:19:48.880Z,101408.84
2023-05-17T21:22:53.717Z,101406.19
2023-05-17T21:25:56.392Z,101407.06
2023-05-17T21:28:58.832Z,101404.41
2023-05-17T21:32:03.900Z,101420.22
2023-05-17T21:35:08.039Z,101416.66
2023-05-17T21:38:10.890Z,101421.91
2023-05-17T21:41:13.371Z,101434.31
2023-05-17T21:44:16.123Z,101436.84
2023-05-17T21:47:18.641Z,101449.19
2023-05-17T21:50:21.480Z,101454.38
2023-05-17T21:53:24.055Z,101452.66
2023-05-17T21:56:26.963Z,101447.25
2023-05-17T21:59:29.339Z,101462.31
2023-05-17T22:02:34.761Z,101468.59
2023-05-17T22:05:38.364Z,101466.88
2023-05-17T22:08:42.540Z,101463.25
2023-05-17T22:11:47.942Z,101465.84
2023-05-17T22:14:51.145Z,101468.47
2023-05-17T22:17:54.479Z,101470.25
2023-05-17T22:20:59.513Z,101479.03
2023-05-17T22:24:02.311Z,101473.69
2023-05-17T22:27:05.456Z,101462.19
2023-05-17T22:30:08.468Z,101466.66
2023-05-17T22:33:12.096Z,101475.53
2023-05-17T22:36:14.840Z,101480.78
2023-05-17T22:39:17.607Z,101489.38
2023-05-17T22:42:20.115Z,101478.59
2023-05-17T22:45:26.284Z,101493.56
2023-05-17T22:48:32.353Z,101489.97
2023-05-17T22:51:38.035Z,101497.88
2023-05-17T22:54:40.714Z,101499.72
2023-05-17T22:57:43.500Z,101497.84
2023-05-17T23:00:46.257Z,101499.66
2023-05-17T23:03:49.260Z,101503.25
2023-05-17T23:06:54.185Z,101505.75
2023-05-17T23:09:57.311Z,101517.19
2023-05-17T23:12:59.929Z,101524.31
2023-05-17T23:16:02.738Z,101516.34
2023-05-17T23:19:05.364Z,101523.44
2023-05-17T23:22:08.287Z,101527.84
2023-05-17T23:25:10.916Z,101524.34
2023-05-17T23:28:14.716Z,101533.22
2023-05-17T23:31:17.838Z,101533.28
2023-05-17T23:34:21.185Z,101520.75
2023-05-17T23:37:24.177Z,101515.59
2023-05-17T23:40:26.920Z,101522.69
2023-05-17T23:43:32.014Z,101518.28
2023-05-17T23:46:34.991Z,101523.63
2023-05-17T23:49:37.654Z,101536.97
2023-05-17T23:52:40.555Z,101542.31
2023-05-17T23:55:43.123Z,101532.63
2023-05-17T23:58:46.230Z,101523.78
